Time;durP1;ratioP1;P1;durP2;ratioP2;P2;SDS_P1;SDS_P2;PMS_P1;PMS_P2;Temp;Humidity;BMP_temperature;BMP_pressure;BME280_temperature;BME280_humidity;BME280_pressure;Samples;Min_cycle;Max_cycle;Signal;HPM_P1;HPM_P2
2022/10/09 00:01:45;;;;;;;6.05;2.60;;;;;;;15.24;100.00;100643.41;10377924;28;20055;-72
2022/10/09 00:06:46;;;;;;;5.47;2.95;;;;;;;14.86;100.00;100573.28;10377761;28;20046;-73
2022/10/09 00:11:47;;;;;;;7.90;2.95;;;;;;;15.40;100.00;100645.00;10375403;28;20092;-72
2022/10/09 00:16:48;;;;;;;9.50;2.22;;;;;;;15.51;100.00;100666.72;10377515;28;20041;-72
2022/10/09 00:21:49;;;;;;;6.38;2.65;;;;;;;14.88;100.00;100545.31;10375803;28;20034;-70
2022/10/09 00:26:49;;;;;;;6.88;2.50;;;;;;;15.44;100.00;100641.75;10376585;28;20061;-73
2022/10/09 00:31:50;;;;;;;8.60;2.90;;;;;;;15.03;100.00;100561.31;10375912;28;20080;-69
2022/10/09 00:36:51;;;;;;;6.38;2.90;;;;;;;15.42;100.00;100630.41;10376244;28;20038;-70
2022/10/09 00:41:52;;;;;;;6.07;2.50;;;;;;;15.48;100.00;100631.50;10375469;28;20045;-73
2022/10/09 00:46:53;;;;;;;7.53;2.45;;;;;;;15.33;100.00;100620.03;10375668;28;20100;-68
2022/10/09 00:51:57;;;;;;;7.55;2.40;;;;;;;15.50;100.00;100640.16;10374897;28;20049;-73
2022/10/09 00:56:58;;;;;;;;;;;;;;;15.60;100.00;100631.78;10375851;28;20053;-70
2022/10/09 01:01:59;;;;;;;5.03;2.20;;;;;;;15.45;100.00;100629.19;10374533;28;19964;-71
2022/10/09 01:07:12;;;;;;;9.30;2.25;;;;;;;15.48;100.00;100618.94;10374498;28;20068;-71
2022/10/09 01:12:16;;;;;;;6.55;2.20;;;;;;;14.10;100.00;100394.63;10374373;28;20456;-72
2022/10/09 01:17:34;;;;;;;4.63;2.10;;;;;;;15.36;100.00;100617.78;10374304;28;20046;-71
2022/10/09 01:22:56;;;;;;;6.45;2.15;;;;;;;15.52;100.00;100647.00;10374702;28;20129;-71
2022/10/09 01:27:58;;;;;;;9.18;2.13;;;;;;;15.47;100.00;100624.50;10373833;28;20058;-73
2022/10/09 01:33:00;;;;;;;6.20;2.15;;;;;;;15.02;100.00;100555.13;10388526;28;20048;-73
2022/10/09 01:38:02;;;;;;;4.78;1.95;;;;;;;15.37;100.00;100603.38;10409275;28;20069;-73
2022/10/09 01:43:03;;;;;;;3.75;2.17;;;;;;;15.43;100.00;100599.94;10382389;28;20042;-69
2022/10/09 01:48:04;;;;;;;4.28;1.92;;;;;;;15.33;100.00;100596.75;10373581;28;20179;-73
2022/10/09 01:53:10;;;;;;;4.93;2.10;;;;;;;15.53;100.00;100619.19;10376658;28;20133;-69
2022/10/09 01:58:20;;;;;;;4.47;2.30;;;;;;;15.52;100.00;100616.69;10406131;28;20083;-70
2022/10/09 02:03:23;;;;;;;4.75;2.25;;;;;;;15.50;100.00;100622.25;10414242;28;20496;-69
2022/10/09 02:08:25;;;;;;;4.47;2.15;;;;;;;15.47;100.00;100605.75;10397984;28;20050;-72
2022/10/09 02:13:26;;;;;;;5.05;2.38;;;;;;;15.49;100.00;100620.56;10371699;28;20068;-69
2022/10/09 02:18:45;;;;;;;8.13;2.03;;;;;;;15.01;100.00;100524.03;10395101;28;20202;-72
2022/10/09 02:23:48;;;;;;;4.72;2.30;;;;;;;15.50;100.00;100594.66;10413359;28;20033;-72
2022/10/09 02:28:50;;;;;;;9.40;2.38;;;;;;;15.02;100.00;100498.13;10413578;28;20093;-73
2022/10/09 02:34:15;;;;;;;6.18;2.42;;;;;;;15.49;100.00;100569.69;10413098;28;20063;-71
2022/10/09 02:39:16;;;;;;;5.60;2.10;;;;;;;15.05;100.00;100511.94;10411449;28;20382;-72
2022/10/09 02:44:17;;;;;;;5.75;2.00;;;;;;;15.54;100.00;100579.84;10419286;28;20524;-72
2022/10/09 02:49:19;;;;;;;6.10;2.20;;;;;;;15.07;100.00;100504.53;10421098;28;20037;-70
2022/10/09 02:54:19;;;;;;;4.63;2.22;;;;;;;15.58;100.00;100591.81;10421132;28;20041;-67
2022/10/09 02:59:20;;;;;;;11.50;3.00;;;;;;;15.09;100.00;100495.50;10421298;28;20042;-70
2022/10/09 03:04:21;;;;;;;7.28;2.53;;;;;;;15.40;100.00;100557.47;10420007;28;20051;-72
2022/10/09 03:09:22;;;;;;;5.20;2.53;;;;;;;15.06;100.00;100497.53;10420445;28;20042;-76
2022/10/09 03:14:23;;;;;;;10.45;2.83;;;;;;;15.52;100.00;100558.63;10419936;28;20132;-71
2022/10/09 03:19:23;;;;;;;5.93;2.20;;;;;;;15.19;100.00;100509.34;10419929;28;20180;-71
2022/10/09 03:24:24;;;;;;;10.15;2.30;;;;;;;15.39;100.00;100539.78;10419153;28;20493;-73
2022/10/09 03:29:25;;;;;;;8.93;2.58;;;;;;;15.66;100.00;100558.72;10418851;28;20037;-71
2022/10/09 03:34:26;;;;;;;10.77;2.75;;;;;;;14.93;100.00;100437.75;10418489;28;20041;-70
2022/10/09 03:39:27;;;;;;;7.20;2.17;;;;;;;15.10;100.00;100462.34;10418815;28;20038;-74
2022/10/09 03:44:28;;;;;;;10.43;2.55;;;;;;;15.22;100.00;100474.16;10418727;28;20033;-72
2022/10/09 03:49:28;;;;;;;10.13;2.50;;;;;;;15.77;100.00;100550.16;10417241;28;20045;-73
2022/10/09 03:54:29;;;;;;;26.58;3.13;;;;;;;15.83;100.00;100554.72;10418794;28;20119;-73
2022/10/09 03:59:30;;;;;;;7.10;2.00;;;;;;;15.74;100.00;100521.91;10418592;28;20409;-71
2022/10/09 04:04:31;;;;;;;10.10;2.83;;;;;;;15.85;100.00;100523.19;10418632;28;20083;-71
2022/10/09 04:09:31;;;;;;;9.18;2.22;;;;;;;15.88;100.00;100517.44;10418259;28;20046;-72
2022/10/09 04:14:32;;;;;;;8.20;2.35;;;;;;;15.94;100.00;100519.34;10417343;28;20044;-72
2022/10/09 04:19:33;;;;;;;11.77;1.98;;;;;;;15.80;100.00;100493.53;10417845;28;20037;-71
2022/10/09 04:24:34;;;;;;;11.00;2.53;;;;;;;15.81;100.00;100499.69;10418212;28;20041;-70
2022/10/09 04:29:35;;;;;;;12.32;2.72;;;;;;;16.00;100.00;100516.88;10418076;28;20046;-71
2022/10/09 04:34:35;;;;;;;11.55;2.40;;;;;;;15.49;100.00;100446.53;10417946;28;20049;-70
2022/10/09 04:39:36;;;;;;;7.03;2.35;;;;;;;15.94;100.00;100531.91;10417235;28;20060;-71
2022/10/09 04:44:37;;;;;;;8.93;2.03;;;;;;;15.92;100.00;100540.16;10417293;28;20050;-73
2022/10/09 04:49:38;;;;;;;7.90;2.13;;;;;;;15.76;100.00;100521.72;10416621;28;20095;-70
2022/10/09 04:54:39;;;;;;;8.48;2.05;;;;;;;15.33;100.00;100465.59;10416490;28;20489;-72
2022/10/09 04:59:40;;;;;;;6.80;1.83;;;;;;;15.86;100.00;100540.94;10416577;28;20092;-72
2022/10/09 05:04:41;;;;;;;4.95;1.95;;;;;;;15.84;100.00;100531.44;10415229;28;20041;-70
2022/10/09 05:09:41;;;;;;;7.72;2.08;;;;;;;15.46;100.00;100487.09;10416174;28;20041;-73
2022/10/09 05:14:42;;;;;;;8.80;2.10;;;;;;;15.67;100.00;100530.91;10400880;28;20567;-73
2022/10/09 05:19:43;;;;;;;8.05;2.20;;;;;;;15.17;100.00;100444.53;10374047;28;20069;-76
2022/10/09 05:24:44;;;;;;;11.07;2.03;;;;;;;15.63;100.00;100517.06;10399739;28;20049;-72
2022/10/09 05:29:45;;;;;;;14.05;2.45;;;;;;;15.56;100.00;100504.69;10414854;28;20567;-73
2022/10/09 05:34:46;;;;;;;35.85;20.00;;;;;;;15.42;100.00;100464.44;10414940;28;20048;-72
2022/10/09 05:39:47;;;;;;;22.77;5.55;;;;;;;15.06;100.00;100414.59;10414686;28;20030;-73
2022/10/09 05:44:47;;;;;;;14.43;3.53;;;;;;;15.27;100.00;100447.66;10388076;28;20038;-73
2022/10/09 05:49:48;;;;;;;9.82;5.97;;;;;;;15.19;100.00;100429.06;10374040;28;20037;-72
2022/10/09 05:54:49;;;;;;;8.73;4.07;;;;;;;15.64;100.00;100504.50;10372886;28;20149;-70
2022/10/09 05:59:50;;;;;;;19.13;6.82;;;;;;;15.63;100.00;100500.19;10384134;28;20042;-70
2022/10/09 06:04:50;;;;;;;10.20;2.58;;;;;;;15.32;100.00;100447.91;10372920;28;20138;-71
2022/10/09 06:09:51;;;;;;;12.57;3.50;;;;;;;15.62;100.00;100498.53;10374975;28;20033;-71
2022/10/09 06:14:52;;;;;;;16.23;3.13;;;;;;;15.40;100.00;100439.69;10403994;28;20424;-70
2022/10/09 06:19:53;;;;;;;9.32;2.40;;;;;;;15.21;100.00;100379.69;10412368;28;20497;-70
2022/10/09 06:24:53;;;;;;;20.25;6.13;;;;;;;15.66;100.00;100414.09;10412591;28;20060;-69
2022/10/09 06:29:56;;;;;;;13.95;3.13;;;;;;;16.11;100.00;100446.66;10412612;28;20076;-70
2022/10/09 06:34:57;;;;;;;13.02;2.65;;;;;;;16.37;100.00;100432.50;10413108;28;20480;-68
2022/10/09 06:39:58;;;;;;;20.58;2.83;;;;;;;16.70;100.00;100421.78;10412495;28;20130;-68
2022/10/09 06:44:58;;;;;;;24.60;1.75;;;;;;;16.44;100.00;100347.50;10413008;28;20525;-68
2022/10/09 06:49:59;;;;;;;10.68;2.30;;;;;;;17.14;100.00;100414.97;10412851;28;20037;-70
2022/10/09 06:55:00;;;;;;;10.35;2.22;;;;;;;17.29;100.00;100399.47;10413592;28;20080;-68
2022/10/09 07:00:01;;;;;;;14.13;1.90;;;;;;;17.56;99.37;100408.25;10412597;28;20038;-67
2022/10/09 07:05:02;;;;;;;7.10;1.63;;;;;;;17.75;97.24;100390.41;10412522;28;20041;-68
2022/10/09 07:10:03;;;;;;;7.43;1.88;;;;;;;17.86;96.80;100398.84;10412527;28;20034;-70
2022/10/09 07:15:05;;;;;;;8.85;1.70;;;;;;;17.84;95.89;100403.63;10412959;28;20048;-70
2022/10/09 07:20:06;;;;;;;10.48;1.98;;;;;;;17.36;95.44;100320.75;10412232;28;20068;-68
2022/10/09 07:25:09;;;;;;;8.20;1.77;;;;;;;17.82;95.08;100405.69;10412421;28;20145;-69
2022/10/09 07:30:10;;;;;;;19.73;1.98;;;;;;;17.67;95.46;100387.94;10415496;28;20390;-68
2022/10/09 07:35:11;;;;;;;11.10;2.28;;;;;;;17.80;95.77;100411.28;10419938;28;20045;-72
2022/10/09 07:40:12;;;;;;;9.00;2.17;;;;;;;17.57;96.18;100387.59;10418754;28;20045;-70
2022/10/09 07:45:13;;;;;;;10.55;1.70;;;;;;;17.72;97.26;100417.69;10418744;28;20505;-70
2022/10/09 07:50:14;;;;;;;12.90;2.15;;;;;;;17.44;98.19;100366.13;10418466;28;20624;-71
2022/10/09 07:55:14;;;;;;;16.40;2.35;;;;;;;17.67;98.88;100414.81;10418204;28;20135;-70
2022/10/09 08:00:16;;;;;;;12.25;2.22;;;;;;;17.14;99.69;100329.09;10419257;28;20055;-71
2022/10/09 08:05:17;;;;;;;15.85;2.70;;;;;;;17.50;100.00;100402.88;10418380;28;20547;-70
2022/10/09 08:10:18;;;;;;;9.15;2.25;;;;;;;17.46;100.00;100393.59;10417753;28;20037;-70
2022/10/09 08:15:19;;;;;;;15.18;2.42;;;;;;;17.60;100.00;100410.50;10418177;28;20053;-70
2022/10/09 08:20:20;;;;;;;7.45;2.15;;;;;;;17.62;100.00;100393.16;10417546;28;20432;-71
2022/10/09 08:25:20;;;;;;;16.13;2.53;;;;;;;17.79;100.00;100401.56;10417686;28;20543;-71
2022/10/09 08:30:21;;;;;;;25.58;3.15;;;;;;;17.69;100.00;100375.13;10417014;28;20045;-71
2022/10/09 08:35:22;;;;;;;17.92;3.42;;;;;;;17.84;100.00;100358.75;10417386;28;20402;-71
2022/10/09 08:40:33;;;;;;;10.55;2.47;;;;;;;18.25;100.00;100392.44;10416984;28;20531;-68
2022/10/09 08:45:34;;;;;;;27.67;2.90;;;;;;;18.51;100.00;100407.53;10409630;28;20087;-70
2022/10/09 08:50:39;;;;;;;19.42;2.95;;;;;;;18.46;100.00;100397.44;10386293;28;20042;-69
2022/10/09 08:55:46;;;;;;;22.15;3.00;;;;;;;18.46;100.00;100448.56;10375566;28;20050;-70
2022/10/09 09:00:54;;;;;;;13.65;2.60;;;;;;;17.99;100.00;100401.47;10411920;28;20045;-70
2022/10/09 09:06:11;;;;;;;9.35;2.30;;;;;;;18.22;100.00;100458.22;10395831;28;20091;-70
2022/10/09 09:11:35;;;;;;;13.70;2.20;;;;;;;18.15;100.00;100457.41;10374776;28;20483;-75
2022/10/09 09:17:00;;;;;;;14.77;2.95;;;;;;;18.09;100.00;100455.59;10380040;28;20087;-70
2022/10/09 09:22:01;;;;;;;12.70;2.75;;;;;;;17.65;100.00;100384.66;10382697;28;20049;-73
2022/10/09 09:27:31;;;;;;;11.27;3.03;;;;;;;17.67;100.00;100358.38;10374117;28;20148;-71
2022/10/09 09:32:33;;;;;;;13.60;2.67;;;;;;;17.20;100.00;100254.91;10372056;28;20061;-72
2022/10/09 09:37:36;;;;;;;8.70;2.90;;;;;;;17.98;100.00;100376.47;10373505;28;20037;-72
2022/10/09 09:42:37;;;;;;;14.23;3.30;;;;;;;17.41;100.00;100259.16;10372708;28;20128;-71
2022/10/09 09:47:46;;;;;;;14.43;2.65;;;;;;;18.03;100.00;100365.88;10372730;28;20128;-73
2022/10/09 09:52:47;;;;;;;17.17;3.47;;;;;;;17.87;100.00;100315.34;10372295;28;20057;-72
2022/10/09 09:57:48;;;;;;;17.65;3.28;;;;;;;18.29;100.00;100355.16;10372952;28;20042;-72
2022/10/09 10:03:00;;;;;;;13.50;3.05;;;;;;;18.31;100.00;100308.19;10373058;28;20042;-72
2022/10/09 10:08:22;;;;;;;13.75;4.18;;;;;;;17.81;100.00;100213.28;10372933;28;20045;-72
2022/10/09 10:13:38;;;;;;;21.92;6.25;;;;;;;18.48;100.00;100274.28;10370895;28;20191;-71
2022/10/09 10:18:41;;;;;;;12.35;3.45;;;;;;;19.28;100.00;100259.16;10372886;28;20049;-72
2022/10/09 10:23:51;;;;;;;12.90;3.25;;;;;;;19.42;100.00;100204.06;10372432;28;20074;-72
2022/10/09 10:29:12;;;;;;;12.38;4.18;;;;;;;19.19;100.00;100195.91;10371790;28;20065;-71
2022/10/09 10:34:19;;;;;;;18.88;4.93;;;;;;;17.64;100.00;99950.53;10371606;28;20064;-70
2022/10/09 10:39:25;;;;;;;18.67;3.83;;;;;;;18.07;100.00;100003.41;10372530;28;20465;-71
2022/10/09 10:44:48;;;;;;;18.50;3.88;;;;;;;18.68;100.00;100109.97;10372791;28;20053;-68
2022/10/09 10:49:49;;;;;;;24.02;4.60;;;;;;;19.12;100.00;100169.06;10383882;28;20502;-70
2022/10/09 10:55:03;;;;;;;17.52;3.90;;;;;;;19.28;100.00;100184.56;10371417;28;20529;-71
2022/10/09 11:00:08;;;;;;;18.83;3.33;;;;;;;19.36;98.83;100159.19;10373660;28;20041;-69
2022/10/09 11:05:27;;;;;;;34.03;4.60;;;;;;;19.08;97.54;100066.38;10411808;28;20037;-69
2022/10/09 11:10:49;;;;;;;15.88;4.15;;;;;;;19.68;96.53;100140.88;10401421;28;20081;-72
2022/10/09 11:15:52;;;;;;;20.92;3.83;;;;;;;19.82;96.12;100107.25;10379766;28;20141;-69
2022/10/09 11:21:07;;;;;;;23.98;3.83;;;;;;;19.93;92.11;100099.41;10417716;28;20038;-68
2022/10/09 11:26:21;;;;;;;21.08;3.40;;;;;;;20.02;92.25;100085.34;10418443;28;20451;-72
2022/10/09 11:31:27;;;;;;;;;;;;;;;20.15;90.12;100092.34;10379215;28;20042;-70
2022/10/09 11:36:43;;;;;;;24.50;3.78;;;;;;;19.69;86.98;100015.06;10378185;28;19917;-72
2022/10/09 11:41:46;;;;;;;28.98;4.10;;;;;;;20.41;88.03;100106.38;10377144;28;20030;-74
2022/10/09 11:47:09;;;;;;;34.13;4.33;;;;;;;20.60;87.05;100107.03;10377995;28;20417;-71
2022/10/09 11:52:17;;;;;;;30.08;5.07;;;;;;;20.69;84.64;100101.03;10377705;28;20066;-73
2022/10/09 11:57:29;;;;;;;38.53;5.82;;;;;;;20.65;79.47;100074.78;10389575;28;20136;-70
2022/10/09 12:02:30;;;;;;;27.45;3.60;;;;;;;20.51;79.97;100060.69;10377241;28;20441;-69
2022/10/09 12:07:34;;;;;;;52.95;5.38;;;;;;;20.70;78.39;100091.03;10378071;28;20096;-67
2022/10/09 12:12:37;;;;;;;;;;;;;;;20.87;79.76;100074.91;10377751;28;20038;-73
2022/10/09 12:17:48;;;;;;;41.63;3.97;;;;;;;20.76;77.10;100082.00;10376408;28;20369;-66
2022/10/09 12:22:55;;;;;;;20.38;3.40;;;;;;;20.70;77.20;100116.19;10376302;28;20074;-73
2022/10/09 12:27:58;;;;;;;23.80;3.70;;;;;;;20.10;77.61;100027.50;10413573;28;20067;-71
2022/10/09 12:33:21;;;;;;;31.10;4.20;;;;;;;19.55;78.40;99936.31;10418258;28;20486;-67
2022/10/09 12:38:30;;;;;;;33.67;4.20;;;;;;;20.45;77.94;100075.16;10417092;28;20049;-69
2022/10/09 12:43:32;;;;;;;18.88;3.42;;;;;;;19.78;78.76;99975.91;10407365;28;20038;-69
2022/10/09 12:48:38;;;;;;;31.60;4.10;;;;;;;20.20;78.56;100056.59;10376219;28;20532;-73
2022/10/09 12:53:47;;;;;;;17.88;3.80;;;;;;;20.23;78.11;100070.41;10374391;28;20061;-69
2022/10/09 12:58:48;;;;;;;28.50;3.90;;;;;;;20.27;78.91;100073.44;10375306;28;20398;-70
2022/10/09 13:04:02;;;;;;;29.17;4.40;;;;;;;20.33;78.16;100075.19;10373990;28;20057;-67
2022/10/09 13:09:16;;;;;;;25.60;4.00;;;;;;;20.30;78.42;100068.38;10375259;28;20081;-71
2022/10/09 13:14:32;;;;;;;33.40;4.65;;;;;;;20.24;78.19;100057.72;10375606;28;20038;-72
2022/10/09 13:19:34;;;;;;;28.42;3.85;;;;;;;20.17;78.87;100046.28;10374666;28;20600;-71
2022/10/09 13:24:35;;;;;;;23.83;4.03;;;;;;;20.19;79.29;100054.91;10381385;28;20029;-72
2022/10/09 13:29:36;;;;;;;32.20;4.00;;;;;;;19.53;79.33;99947.34;10395361;28;20037;-69
2022/10/09 13:34:37;;;;;;;30.88;3.63;;;;;;;20.05;80.19;100046.28;10415250;28;20115;-72
2022/10/09 13:39:38;;;;;;;32.88;5.05;;;;;;;19.94;80.87;100030.94;10413672;28;20037;-72
2022/10/09 13:44:39;;;;;;;24.95;3.72;;;;;;;19.52;81.42;99969.94;10413785;28;20045;-74
2022/10/09 13:49:40;;;;;;;27.60;4.47;;;;;;;19.91;81.95;100037.63;10414867;28;20068;-74
2022/10/09 13:54:41;;;;;;;42.70;4.88;;;;;;;19.77;82.92;100044.31;10396344;28;20053;-72
2022/10/09 13:59:42;;;;;;;21.13;4.07;;;;;;;19.86;83.15;100056.38;10377756;28;20137;-74
2022/10/09 14:04:43;;;;;;;26.02;4.40;;;;;;;19.71;83.84;100047.97;10399600;28;20564;-72
2022/10/09 14:09:43;;;;;;;25.95;4.95;;;;;;;19.73;84.17;100056.63;10414516;28;20051;-70
2022/10/09 14:14:44;;;;;;;15.73;3.42;;;;;;;19.78;84.85;100068.34;10411759;28;20045;-71
2022/10/09 14:19:45;;;;;;;15.48;3.40;;;;;;;19.55;85.71;100038.69;10374141;28;20050;-73
2022/10/09 14:24:46;;;;;;;11.90;3.70;;;;;;;19.12;86.02;99975.22;10387279;28;20096;-72
2022/10/09 14:29:47;;;;;;;13.23;3.78;;;;;;;19.58;86.45;100057.91;10410579;28;20038;-70
2022/10/09 14:34:48;;;;;;;17.38;4.18;;;;;;;19.58;86.76;100063.28;10406173;28;20053;-70
2022/10/09 14:39:49;;;;;;;19.85;3.72;;;;;;;19.66;87.08;100082.91;10388968;28;20049;-71
2022/10/09 14:44:50;;;;;;;26.23;4.75;;;;;;;19.58;87.15;100079.44;10370831;28;20042;-71
2022/10/09 14:49:50;;;;;;;17.58;4.00;;;;;;;19.59;87.90;100099.13;10396003;28;20136;-71
2022/10/09 14:54:51;;;;;;;17.48;3.92;;;;;;;19.16;88.05;100033.72;10383426;28;20064;-73
2022/10/09 14:59:52;;;;;;;15.30;3.58;;;;;;;19.46;88.38;100086.72;10453156;28;20138;-75
2022/10/09 15:04:53;;;;;;;20.60;4.20;;;;;;;19.07;88.57;100035.13;10408895;28;20050;-72
2022/10/09 15:09:55;;;;;;;18.52;3.95;;;;;;;18.56;89.11;99960.34;10407708;28;20045;-74
2022/10/09 15:14:56;;;;;;;28.00;5.10;;;;;;;19.40;89.64;100101.09;10394987;28;20084;-70
2022/10/09 15:19:57;;;;;;;17.52;4.53;;;;;;;19.28;89.92;100079.53;10381593;28;20505;-75
2022/10/09 15:24:57;;;;;;;32.42;10.38;;;;;;;19.24;90.23;100075.69;10369783;28;20112;-72
2022/10/09 15:29:58;;;;;;;28.30;5.28;;;;;;;19.38;90.61;100124.75;10380531;28;20137;-75
2022/10/09 15:34:59;;;;;;;17.10;4.72;;;;;;;19.36;91.43;100140.34;10377060;28;20048;-73
2022/10/09 15:40:00;;;;;;;21.55;4.20;;;;;;;18.89;91.74;100067.50;10387319;28;20054;-73
2022/10/09 15:45:01;;;;;;;19.67;4.18;;;;;;;19.11;92.57;100119.75;10392800;28;20049;-70
2022/10/09 15:50:02;;;;;;;18.63;4.38;;;;;;;19.23;93.41;100137.81;10389581;28;20060;-71
2022/10/09 15:55:03;;;;;;;18.27;4.45;;;;;;;19.16;94.82;100127.97;10385421;28;20041;-67
2022/10/09 16:00:05;;;;;;;38.28;12.20;;;;;;;18.95;96.41;100088.13;10376357;28;20064;-71
2022/10/09 16:05:06;;;;;;;102.82;41.95;;;;;;;19.00;97.97;100099.03;10376337;28;20413;-72
2022/10/09 16:10:07;;;;;;;83.05;33.28;;;;;;;18.88;99.58;100103.56;10377932;28;20405;-72
2022/10/09 16:15:08;;;;;;;49.90;17.63;;;;;;;18.72;100.00;100086.13;10377350;28;20176;-72
2022/10/09 16:20:09;;;;;;;67.75;23.08;;;;;;;18.33;100.00;100057.88;10375782;28;20038;-71
2022/10/09 16:25:10;;;;;;;53.65;7.45;;;;;;;18.53;100.00;100139.13;10387994;28;20485;-72
2022/10/09 16:30:12;;;;;;;42.20;8.13;;;;;;;17.51;100.00;100001.69;10376852;28;20076;-72
2022/10/09 16:35:13;;;;;;;69.30;17.77;;;;;;;18.53;100.00;100176.81;10384473;28;20059;-71
2022/10/09 16:40:14;;;;;;;54.75;11.48;;;;;;;18.44;100.00;100160.13;10444869;28;20588;-73
2022/10/09 16:45:15;;;;;;;53.90;8.18;;;;;;;17.88;100.00;100061.69;10456864;28;20484;-73
2022/10/09 16:50:16;;;;;;;36.45;8.70;;;;;;;17.66;100.00;100057.75;10410214;28;20042;-73
2022/10/09 16:55:17;;;;;;;37.47;8.40;;;;;;;17.88;100.00;100120.78;10410589;28;20439;-72
2022/10/09 17:00:17;;;;;;;34.33;5.88;;;;;;;17.91;100.00;100132.97;10401319;28;20132;-74
2022/10/09 17:05:19;;;;;;;50.83;6.80;;;;;;;17.64;100.00;100113.56;10375486;28;20523;-74
2022/10/09 17:10:20;;;;;;;44.85;7.32;;;;;;;17.69;100.00;100138.72;10374480;28;20045;-72
2022/10/09 17:15:20;;;;;;;58.60;20.45;;;;;;;17.04;100.00;100033.47;10374531;28;20042;-73
2022/10/09 17:20:21;;;;;;;45.83;8.93;;;;;;;17.37;100.00;100102.22;10385827;28;20041;-74
2022/10/09 17:25:22;;;;;;;35.65;6.90;;;;;;;17.57;100.00;100149.34;10415683;28;20398;-74
2022/10/09 17:30:24;;;;;;;46.13;7.43;;;;;;;17.47;100.00;100134.75;10414656;28;20041;-74
2022/10/09 17:35:25;;;;;;;39.15;6.20;;;;;;;16.82;100.00;100025.78;10388161;28;20069;-73
2022/10/09 17:40:26;;;;;;;40.55;6.47;;;;;;;17.00;100.00;100059.94;10373381;28;20056;-72
2022/10/09 17:45:26;;;;;;;30.42;5.25;;;;;;;17.52;100.00;100135.75;10372408;28;20068;-72
2022/10/09 17:50:27;;;;;;;25.42;4.78;;;;;;;16.89;100.00;100037.28;10374202;28;20041;-72
2022/10/09 17:55:28;;;;;;;37.08;5.57;;;;;;;17.33;100.00;100112.56;10373626;28;20049;-72
2022/10/09 18:00:29;;;;;;;31.10;4.78;;;;;;;17.37;100.00;100113.75;10372769;28;20041;-72
2022/10/09 18:05:30;;;;;;;33.72;5.50;;;;;;;17.15;100.00;100069.53;10374151;28;20045;-74
2022/10/09 18:10:31;;;;;;;46.83;18.48;;;;;;;17.50;100.00;100137.84;10372526;28;20066;-72
2022/10/09 18:15:36;;;;;;;56.67;18.38;;;;;;;17.15;100.00;100078.41;10372222;28;20048;-72
2022/10/09 18:20:38;;;;;;;38.15;8.57;;;;;;;17.57;100.00;100145.84;10372745;28;20436;-72
2022/10/09 18:25:43;;;;;;;60.50;17.63;;;;;;;17.58;100.00;100147.47;10372446;28;20069;-72
2022/10/09 18:30:47;;;;;;;33.88;7.18;;;;;;;17.58;100.00;100132.19;10372694;28;20038;-75
2022/10/09 18:35:48;;;;;;;29.88;6.32;;;;;;;17.60;100.00;100128.47;10371911;28;20088;-72
2022/10/09 18:40:48;;;;;;;36.45;6.22;;;;;;;17.56;100.00;100122.72;10372097;28;20096;-72
2022/10/09 18:45:49;;;;;;;50.33;14.38;;;;;;;17.51;100.00;100115.31;10371211;28;20053;-72
2022/10/09 18:50:50;;;;;;;45.15;9.73;;;;;;;17.42;100.00;100105.06;10371847;28;20052;-75
2022/10/09 18:55:51;;;;;;;44.20;13.43;;;;;;;17.29;100.00;100079.97;10372683;28;20042;-72
2022/10/09 19:00:52;;;;;;;48.70;10.43;;;;;;;17.47;100.00;100114.13;10374030;28;20123;-72
2022/10/09 19:05:52;;;;;;;34.00;7.20;;;;;;;17.46;100.00;100107.09;10380287;28;20052;-73
2022/10/09 19:10:54;;;;;;;39.38;8.27;;;;;;;17.02;100.00;100035.56;10371903;28;20132;-75
2022/10/09 19:16:03;;;;;;;29.83;7.40;;;;;;;17.16;100.00;100068.50;10371469;28;20050;-72
2022/10/09 19:21:04;;;;;;;25.55;8.65;;;;;;;16.81;100.00;100001.84;10369898;28;20405;-72
2022/10/09 19:26:05;;;;;;;33.08;6.88;;;;;;;17.32;100.00;100090.28;10375094;28;20061;-72
2022/10/09 19:31:07;;;;;;;30.95;8.63;;;;;;;17.18;100.00;100074.47;10378738;28;20037;-72
2022/10/09 19:36:11;;;;;;;27.55;5.57;;;;;;;17.17;100.00;100075.50;10379436;28;20455;-73
2022/10/09 19:41:14;;;;;;;27.20;5.10;;;;;;;17.36;100.00;100096.03;10390449;28;20038;-70
2022/10/09 19:46:17;;;;;;;27.42;4.55;;;;;;;16.81;100.00;100009.91;10388647;28;20525;-72
2022/10/09 19:51:21;;;;;;;16.35;3.95;;;;;;;16.74;100.00;99996.50;10378940;28;20064;-72
2022/10/09 19:56:25;;;;;;;11.57;3.17;;;;;;;17.32;100.00;100094.81;10377670;28;20510;-72
2022/10/09 20:01:26;;;;;;;23.13;3.97;;;;;;;17.12;100.00;100068.13;10376598;28;20042;-73
2022/10/09 20:06:27;;;;;;;15.43;3.80;;;;;;;17.14;100.00;100070.56;10378652;28;20073;-72
2022/10/09 20:11:28;;;;;;;19.08;4.00;;;;;;;17.09;100.00;100052.44;10377646;28;20038;-72
2022/10/09 20:16:30;;;;;;;17.52;6.60;;;;;;;17.15;100.00;100064.19;10376162;28;20410;-72
2022/10/09 20:21:32;;;;;;;20.50;6.53;;;;;;;17.12;100.00;100065.44;10388156;28;20490;-72
2022/10/09 20:26:33;;;;;;;25.58;10.52;;;;;;;16.76;100.00;100010.56;10376380;28;20414;-72
2022/10/09 20:31:34;;;;;;;23.02;8.52;;;;;;;16.98;100.00;100055.81;10376711;28;20042;-72
2022/10/09 20:36:36;;;;;;;19.95;4.55;;;;;;;16.93;100.00;100032.34;10376232;28;20104;-72
2022/10/09 20:41:38;;;;;;;17.40;5.72;;;;;;;17.08;100.00;100053.47;10376184;28;20548;-72
2022/10/09 20:46:40;;;;;;;18.90;6.18;;;;;;;17.11;100.00;100047.66;10375191;28;20048;-73
2022/10/09 20:51:41;;;;;;;17.70;3.83;;;;;;;17.06;100.00;100039.47;10386602;28;20045;-72
2022/10/09 20:56:43;;;;;;;14.57;3.70;;;;;;;17.00;100.00;100021.56;10375071;28;20046;-72
2022/10/09 21:01:45;;;;;;;14.73;4.03;;;;;;;17.29;100.00;100076.44;10375504;28;20045;-72
2022/10/09 21:06:46;;;;;;;14.88;4.07;;;;;;;17.25;100.00;100068.00;10375500;28;20049;-72
2022/10/09 21:11:46;;;;;;;22.15;6.90;;;;;;;16.78;100.00;99986.19;10375147;28;20038;-72
2022/10/09 21:16:47;;;;;;;19.63;5.50;;;;;;;17.05;100.00;100030.59;10375562;28;20568;-72
2022/10/09 21:21:48;;;;;;;15.90;4.63;;;;;;;16.82;100.00;99998.97;10374226;28;20425;-73
2022/10/09 21:26:49;;;;;;;13.50;3.88;;;;;;;16.56;100.00;99959.69;10374418;28;20136;-72
2022/10/09 21:31:49;;;;;;;17.75;3.95;;;;;;;17.20;100.00;100059.81;10374041;28;20046;-72
2022/10/09 21:36:52;;;;;;;10.38;3.22;;;;;;;17.14;100.00;100059.84;10374285;28;20041;-72
2022/10/09 21:41:53;;;;;;;12.30;3.53;;;;;;;17.10;100.00;100043.34;10374180;28;20449;-72
2022/10/09 21:46:54;;;;;;;12.88;3.22;;;;;;;17.06;100.00;100048.34;10372724;28;20038;-72
2022/10/09 21:51:55;;;;;;;20.00;3.50;;;;;;;17.02;100.00;100060.56;10374024;28;20048;-73
2022/10/09 21:56:55;;;;;;;21.45;3.92;;;;;;;16.29;100.00;99932.25;10373998;28;20054;-72
2022/10/09 22:01:56;;;;;;;21.38;3.88;;;;;;;17.01;100.00;100052.72;10372755;28;20056;-72
2022/10/09 22:06:57;;;;;;;14.90;4.07;;;;;;;17.00;100.00;100053.75;10373400;28;20521;-72
2022/10/09 22:11:59;;;;;;;17.00;3.78;;;;;;;16.98;100.00;100059.31;10372581;28;20597;-72
2022/10/09 22:16:59;;;;;;;11.30;3.80;;;;;;;15.90;100.00;99885.88;10373126;28;20049;-72
2022/10/09 22:22:00;;;;;;;15.35;3.63;;;;;;;16.53;100.00;99986.94;10372851;28;20486;-72
2022/10/09 22:27:01;;;;;;;11.82;3.75;;;;;;;16.74;100.00;100042.13;10372904;28;20550;-72
2022/10/09 22:32:02;;;;;;;17.92;4.10;;;;;;;16.72;100.00;100041.53;10372681;28;20049;-72
2022/10/09 22:37:03;;;;;;;14.82;3.47;;;;;;;16.73;100.00;100069.97;10373021;28;20137;-72
2022/10/09 22:42:04;;;;;;;15.63;4.10;;;;;;;16.44;100.00;100017.75;10383177;28;20121;-72
2022/10/09 22:47:04;;;;;;;15.73;4.60;;;;;;;16.53;100.00;100021.81;10371786;28;20038;-72
2022/10/09 22:52:05;;;;;;;13.50;4.20;;;;;;;16.53;100.00;100015.63;10372172;28;20092;-72